createdAt,value
2022-08-25T00:00:17.547Z,55.84
2022-08-25T00:03:05.075Z,55.08
2022-08-25T00:05:33.854Z,54.57
2022-08-25T00:08:03.431Z,54.24
2022-08-25T00:10:34.846Z,54.28
2022-08-25T00:13:04.770Z,54.12
2022-08-25T00:15:33.815Z,53.84
2022-08-25T00:18:02.916Z,53.62
2022-08-25T00:20:32.544Z,53.76
2022-08-25T00:23:01.567Z,53.59
2022-08-25T00:25:30.057Z,53.51
2022-08-25T00:28:03.071Z,53.39
2022-08-25T00:30:36.778Z,53.30
2022-08-25T00:33:05.803Z,53.18
2022-08-25T00:35:34.576Z,53.26
2022-08-25T00:38:03.528Z,53.34
2022-08-25T00:40:32.430Z,53.31
2022-08-25T00:43:02.811Z,53.18
2022-08-25T00:45:31.429Z,53.96
2022-08-25T00:48:00.240Z,54.80
2022-08-25T00:50:30.545Z,54.34
2022-08-25T00:53:03.264Z,54.41
2022-08-25T00:55:35.574Z,55.47
2022-08-25T00:58:11.623Z,55.76
2022-08-25T01:00:44.188Z,55.92
2022-08-25T01:03:13.800Z,55.76
2022-08-25T01:05:44.748Z,56.14
2022-08-25T01:08:16.375Z,55.60
2022-08-25T01:10:46.549Z,55.75
2022-08-25T01:13:20.426Z,55.79
2022-08-25T01:15:53.811Z,55.41
2022-08-25T01:18:23.290Z,55.14
2022-08-25T01:20:54.092Z,54.73
2022-08-25T01:23:23.999Z,54.68
2022-08-25T01:26:01.229Z,54.61
2022-08-25T01:28:30.091Z,54.49
2022-08-25T01:30:58.872Z,54.30
2022-08-25T01:33:27.310Z,54.35
2022-08-25T01:35:57.109Z,54.69
2022-08-25T01:38:25.773Z,54.20
2022-08-25T01:40:54.193Z,54.29
2022-08-25T01:43:31.587Z,54.16
2022-08-25T01:46:00.360Z,54.49
2022-08-25T01:48:28.837Z,54.24
2022-08-25T01:50:58.632Z,55.90
2022-08-25T01:53:29.942Z,55.94
2022-08-25T01:56:10.231Z,55.46
2022-08-25T01:58:40.778Z,55.45
2022-08-25T02:01:12.531Z,55.34
2022-08-25T02:03:42.977Z,55.27
2022-08-25T02:06:15.061Z,55.21
2022-08-25T02:08:44.801Z,54.88
2022-08-25T02:11:14.109Z,55.37
2022-08-25T02:13:43.675Z,55.24
2022-08-25T02:16:18.267Z,55.14
2022-08-25T02:18:47.254Z,55.22
2022-08-25T02:21:17.645Z,55.00
2022-08-25T02:23:46.507Z,55.00
2022-08-25T02:26:16.849Z,55.88
2022-08-25T02:28:47.044Z,55.85
2022-08-25T02:31:16.514Z,55.72
2022-08-25T02:33:45.300Z,56.18
2022-08-25T02:36:13.997Z,56.54
2022-08-25T02:38:44.064Z,56.32
2022-08-25T02:41:16.728Z,56.51
2022-08-25T02:43:46.780Z,58.14
2022-08-25T02:46:15.786Z,57.28
2022-08-25T02:48:44.556Z,56.96
2022-08-25T02:51:13.756Z,56.55
2022-08-25T02:53:45.959Z,56.56
2022-08-25T02:56:16.720Z,56.19
2022-08-25T02:58:46.271Z,56.08
2022-08-25T03:01:16.503Z,56.08
2022-08-25T03:03:47.376Z,55.80
2022-08-25T03:06:19.779Z,55.42
2022-08-25T03:08:50.684Z,55.25
2022-08-25T03:11:19.299Z,55.27
2022-08-25T03:13:50.095Z,55.24
2022-08-25T03:16:19.529Z,55.50
2022-08-25T03:18:48.340Z,54.88
2022-08-25T03:21:18.160Z,55.26
2022-08-25T03:23:46.940Z,55.31
2022-08-25T03:26:30.742Z,54.96
2022-08-25T03:28:59.957Z,54.96
2022-08-25T03:31:28.772Z,55.98
2022-08-25T03:33:57.484Z,59.05
2022-08-25T03:36:26.599Z,57.59
2022-08-25T03:38:55.688Z,56.97
2022-08-25T03:41:29.187Z,56.89
2022-08-25T03:43:58.630Z,57.94
2022-08-25T03:46:29.920Z,57.20
2022-08-25T03:49:01.482Z,56.69
2022-08-25T03:51:34.677Z,56.46
2022-08-25T03:54:05.172Z,56.25
2022-08-25T03:56:35.051Z,56.44
2022-08-25T03:59:03.892Z,56.89
2022-08-25T04:01:32.843Z,57.99
2022-08-25T04:04:01.359Z,60.27
2022-08-25T04:06:29.868Z,63.48
2022-08-25T04:08:59.764Z,64.28
2022-08-25T04:11:29.198Z,66.06
2022-08-25T04:14:02.433Z,66.17
2022-08-25T04:16:33.362Z,66.53
2022-08-25T04:19:04.828Z,65.58
2022-08-25T04:21:33.715Z,63.75
2022-08-25T04:24:02.413Z,62.57
2022-08-25T04:26:33.392Z,61.40
2022-08-25T04:29:05.477Z,60.83
2022-08-25T04:31:35.178Z,62.11
2022-08-25T04:34:13.466Z,61.97
2022-08-25T04:36:54.192Z,65.38
2022-08-25T04:39:23.011Z,65.50
2022-08-25T04:41:52.489Z,65.69
2022-08-25T04:44:22.276Z,66.63
2022-08-25T04:46:51.053Z,67.10
2022-08-25T04:49:19.774Z,65.19
2022-08-25T04:51:48.309Z,64.56
2022-08-25T04:54:21.659Z,63.66
2022-08-25T04:56:54.044Z,61.92
2022-08-25T04:59:30.271Z,62.07
2022-08-25T05:02:02.661Z,63.64
2022-08-25T05:04:33.321Z,62.47
2022-08-25T05:07:02.877Z,62.63
2022-08-25T05:09:32.024Z,61.42
2022-08-25T05:12:02.863Z,60.98
2022-08-25T05:14:33.312Z,60.04
2022-08-25T05:17:02.871Z,59.35
2022-08-25T05:19:31.737Z,59.51
2022-08-25T05:22:00.537Z,59.17
2022-08-25T05:24:29.656Z,58.46
2022-08-25T05:26:58.799Z,58.14
2022-08-25T05:29:27.414Z,57.79
2022-08-25T05:31:57.539Z,58.74
2022-08-25T05:34:26.022Z,59.04
2022-08-25T05:36:54.688Z,58.37
2022-08-25T05:39:23.329Z,57.57
2022-08-25T05:41:55.326Z,60.28
2022-08-25T05:44:23.777Z,59.31
2022-08-25T05:46:52.539Z,58.58
2022-08-25T05:49:22.349Z,59.16
2022-08-25T05:51:50.782Z,58.37
2022-08-25T05:54:19.754Z,57.78
2022-08-25T05:56:48.283Z,57.92
2022-08-25T05:59:16.679Z,57.08
2022-08-25T06:02:03.424Z,57.14
2022-08-25T06:04:33.570Z,57.60
2022-08-25T06:07:02.459Z,57.73
2022-08-25T06:09:30.933Z,56.49
2022-08-25T06:11:59.340Z,55.86
2022-08-25T06:14:27.963Z,55.43
2022-08-25T06:16:56.955Z,54.78
2022-08-25T06:19:25.356Z,54.25
2022-08-25T06:21:59.028Z,53.45
2022-08-25T06:24:29.250Z,53.76
2022-08-25T06:26:58.174Z,54.58
2022-08-25T06:29:27.455Z,53.89
2022-08-25T06:31:55.961Z,53.35
2022-08-25T06:34:24.705Z,52.64
2022-08-25T06:36:54.026Z,52.39
2022-08-25T06:39:24.292Z,52.44
2022-08-25T06:41:54.011Z,52.08
2022-08-25T06:44:22.945Z,51.69
2022-08-25T06:46:51.985Z,50.99
2022-08-25T06:49:21.504Z,50.51
2022-08-25T06:51:50.638Z,50.12
2022-08-25T06:54:19.097Z,50.21
2022-08-25T06:56:49.679Z,49.24
2022-08-25T06:59:19.167Z,51.34
2022-08-25T07:01:50.113Z,52.38
2022-08-25T07:04:19.056Z,53.14
2022-08-25T07:06:48.207Z,53.10
2022-08-25T07:09:16.924Z,52.89
2022-08-25T07:11:46.478Z,53.80
2022-08-25T07:14:18.975Z,53.59
2022-08-25T07:16:50.290Z,55.15
2022-08-25T07:19:21.010Z,55.06
2022-08-25T07:21:54.202Z,55.92
2022-08-25T07:24:23.886Z,59.63
2022-08-25T07:26:53.298Z,57.97
2022-08-25T07:29:32.306Z,56.18
2022-08-25T07:32:02.792Z,55.83
2022-08-25T07:34:52.405Z,59.11
2022-08-25T07:37:47.583Z,59.53
2022-08-25T07:40:14.703Z,59.93
2022-08-25T07:42:43.466Z,58.80
2022-08-25T07:45:15.522Z,60.04
2022-08-25T07:47:47.187Z,57.98
2022-08-25T07:50:15.645Z,56.20
2022-08-25T07:52:44.110Z,55.43
2022-08-25T07:55:21.380Z,54.09
2022-08-25T07:57:55.358Z,53.86
2022-08-25T08:00:30.176Z,54.06
2022-08-25T08:02:59.105Z,53.38
2022-08-25T08:05:28.357Z,55.77
2022-08-25T08:07:57.397Z,56.98
2022-08-25T08:10:47.791Z,55.91
2022-08-25T08:13:18.403Z,57.27
2022-08-25T08:15:49.072Z,55.08
2022-08-25T08:18:18.371Z,54.77
2022-08-25T08:20:48.224Z,53.54
2022-08-25T08:23:17.896Z,53.65
2022-08-25T08:25:46.538Z,54.64
2022-08-25T08:28:15.173Z,53.46
2022-08-25T08:30:52.938Z,55.22
2022-08-25T08:33:25.581Z,55.36
2022-08-25T08:36:05.661Z,54.14
2022-08-25T08:38:35.149Z,56.23
2022-08-25T08:41:40.133Z,55.86
2022-08-25T08:44:29.393Z,54.24
2022-08-25T08:47:09.125Z,55.27
2022-08-25T08:49:49.431Z,55.42
2022-08-25T08:52:21.277Z,53.57
2022-08-25T08:54:56.890Z,53.96
2022-08-25T08:57:29.449Z,51.88
2022-08-25T09:00:03.022Z,53.52
2022-08-25T09:02:51.665Z,52.74
2022-08-25T09:05:28.761Z,50.49
2022-08-25T09:07:59.403Z,51.60
2022-08-25T09:10:40.604Z,52.50
2022-08-25T09:13:19.932Z,51.86
2022-08-25T09:16:23.317Z,52.83
2022-08-25T09:19:23.508Z,53.54
2022-08-25T09:22:02.568Z,51.55
2022-08-25T09:24:58.468Z,51.77
2022-08-25T09:27:38.177Z,52.87
2022-08-25T09:30:12.296Z,51.50
2022-08-25T09:32:48.982Z,50.89
2022-08-25T09:35:26.178Z,49.38
2022-08-25T09:38:02.226Z,48.40
2022-08-25T09:40:34.976Z,50.37
2022-08-25T09:43:18.980Z,52.00
2022-08-25T09:45:50.342Z,49.42
2022-08-25T09:48:26.977Z,51.62
2022-08-25T09:51:02.419Z,50.02
2022-08-25T09:53:34.801Z,49.76
2022-08-25T09:56:07.504Z,49.00
2022-08-25T09:58:36.417Z,49.52
2022-08-25T10:01:16.913Z,50.23
2022-08-25T10:04:01.030Z,50.54
2022-08-25T10:06:36.370Z,49.37
2022-08-25T10:09:08.357Z,48.00
2022-08-25T10:11:43.496Z,46.29
2022-08-25T10:14:23.028Z,47.29
2022-08-25T10:16:54.613Z,47.07
2022-08-25T10:19:27.165Z,45.60
2022-08-25T10:22:08.329Z,43.79
2022-08-25T10:24:43.997Z,43.50
2022-08-25T10:27:25.433Z,42.90
2022-08-25T10:30:15.427Z,43.43
2022-08-25T10:33:01.956Z,42.65
2022-08-25T10:35:41.686Z,42.83
2022-08-25T10:38:27.217Z,43.13
2022-08-25T10:41:11.143Z,42.69
2022-08-25T10:43:50.416Z,40.94
2022-08-25T10:46:32.924Z,41.26
2022-08-25T10:49:05.683Z,40.47
2022-08-25T10:51:52.081Z,42.88
2022-08-25T10:54:33.429Z,41.99
2022-08-25T10:57:18.317Z,42.54
2022-08-25T11:00:05.093Z,44.01
2022-08-25T11:03:02.490Z,44.88
2022-08-25T11:05:36.837Z,43.29
2022-08-25T11:08:11.997Z,42.06
2022-08-25T11:10:45.914Z,41.62
2022-08-25T11:13:25.973Z,40.44
2022-08-25T11:16:19.123Z,39.07
2022-08-25T11:18:55.664Z,39.86
2022-08-25T11:21:34.891Z,39.85
2022-08-25T11:24:16.989Z,39.11
2022-08-25T11:26:53.173Z,36.95
2022-08-25T11:29:28.114Z,37.05
2022-08-25T11:32:01.209Z,37.18
2022-08-25T11:34:33.918Z,36.53
2022-08-25T11:37:11.267Z,36.26
2022-08-25T11:40:03.020Z,36.54
2022-08-25T11:42:43.053Z,35.86
2022-08-25T11:45:45.645Z,38.03
2022-08-25T11:48:25.038Z,38.52
2022-08-25T11:51:03.006Z,37.84
2022-08-25T11:53:35.603Z,36.89
2022-08-25T11:56:09.499Z,36.63
2022-08-25T11:58:47.774Z,38.08
2022-08-25T12:01:51.841Z,37.79
2022-08-25T12:04:44.244Z,37.08
2022-08-25T12:07:27.152Z,35.82
2022-08-25T12:10:18.706Z,37.46
2022-08-25T12:13:08.064Z,37.49
2022-08-25T12:16:00.901Z,36.28
2022-08-25T12:18:46.456Z,35.18
2022-08-25T12:21:31.055Z,34.76
2022-08-25T12:24:12.039Z,34.84
2022-08-25T12:26:51.853Z,33.66
2022-08-25T12:29:30.511Z,34.12
2022-08-25T12:32:21.921Z,33.13
2022-08-25T12:35:14.696Z,34.52
2022-08-25T12:37:59.770Z,33.60
2022-08-25T12:40:34.964Z,32.53
2022-08-25T12:43:07.872Z,31.70
2022-08-25T12:45:43.448Z,33.46
2022-08-25T12:48:44.315Z,31.67
2022-08-25T12:51:19.667Z,30.35
2022-08-25T12:53:54.338Z,31.08
2022-08-25T12:56:39.045Z,30.74
2022-08-25T12:59:16.699Z,32.22
2022-08-25T13:02:14.093Z,33.14
2022-08-25T13:05:14.592Z,33.24
2022-08-25T13:07:58.467Z,33.59
2022-08-25T13:10:42.214Z,33.62
2022-08-25T13:13:20.219Z,33.41
2022-08-25T13:16:00.031Z,33.05
2022-08-25T13:18:30.703Z,32.66
2022-08-25T13:21:10.598Z,32.14
2022-08-25T13:23:43.838Z,31.93
2022-08-25T13:26:16.614Z,31.44
2022-08-25T13:28:55.576Z,30.84
2022-08-25T13:31:28.181Z,30.63
2022-08-25T13:34:00.204Z,30.92
2022-08-25T13:36:53.985Z,31.17
2022-08-25T13:39:45.220Z,32.65
2022-08-25T13:42:18.201Z,31.73
2022-08-25T13:44:52.020Z,31.69
2022-08-25T13:47:43.375Z,32.34
2022-08-25T13:50:21.400Z,35.07
2022-08-25T13:52:55.119Z,36.44
2022-08-25T13:55:27.750Z,37.80
2022-08-25T13:58:00.519Z,37.66
2022-08-25T14:00:34.773Z,36.82
2022-08-25T14:03:13.115Z,37.14
2022-08-25T14:05:45.585Z,37.06
2022-08-25T14:08:32.629Z,37.24
2022-08-25T14:11:13.882Z,37.06
2022-08-25T14:13:46.284Z,37.80
2022-08-25T14:16:21.309Z,37.20
2022-08-25T14:18:52.781Z,36.68
2022-08-25T14:21:27.483Z,37.66
2022-08-25T14:23:58.178Z,37.65
2022-08-25T14:26:29.036Z,37.46
2022-08-25T14:29:00.584Z,36.51
2022-08-25T14:31:33.491Z,37.33
2022-08-25T14:34:06.652Z,37.14
2022-08-25T14:36:36.516Z,38.07
2022-08-25T14:39:08.899Z,38.08
2022-08-25T14:41:40.862Z,37.48
2022-08-25T14:44:11.869Z,35.98
2022-08-25T14:46:46.078Z,35.32
2022-08-25T14:49:24.902Z,35.38
2022-08-25T14:51:55.341Z,36.36
2022-08-25T14:54:28.478Z,36.74
2022-08-25T14:56:58.298Z,36.59
2022-08-25T14:59:28.249Z,37.47
2022-08-25T15:01:57.597Z,37.79
2022-08-25T15:04:29.959Z,36.89
2022-08-25T15:07:22.778Z,35.97
2022-08-25T15:09:51.589Z,37.25
2022-08-25T15:12:47.368Z,36.45
2022-08-25T15:15:19.483Z,35.45
2022-08-25T15:17:50.462Z,34.19
2022-08-25T15:20:19.233Z,33.98
2022-08-25T15:22:48.232Z,34.02
2022-08-25T15:25:18.107Z,34.43
2022-08-25T15:27:47.352Z,33.65
2022-08-25T15:30:16.451Z,33.61
2022-08-25T15:32:48.627Z,35.33
2022-08-25T15:35:17.589Z,34.86
2022-08-25T15:37:48.127Z,34.57
2022-08-25T15:40:16.964Z,33.61
2022-08-25T15:42:46.047Z,33.99
2022-08-25T15:45:14.734Z,34.57
2022-08-25T15:47:43.257Z,33.91
2022-08-25T15:50:16.285Z,33.73
2022-08-25T15:52:46.407Z,33.44
2022-08-25T15:55:17.423Z,34.01
2022-08-25T15:57:45.950Z,33.81
2022-08-25T16:00:16.723Z,33.98
2022-08-25T16:02:46.481Z,33.38
2022-08-25T16:05:16.756Z,33.80
2022-08-25T16:07:51.813Z,33.78
2022-08-25T16:10:21.104Z,33.81
2022-08-25T16:12:50.348Z,35.88
2022-08-25T16:15:19.079Z,35.51
2022-08-25T16:17:59.024Z,35.51
2022-08-25T16:20:29.258Z,35.86
2022-08-25T16:23:00.041Z,35.66
2022-08-25T16:25:28.912Z,35.78
2022-08-25T16:27:57.666Z,35.50
2022-08-25T16:30:26.978Z,35.75
2022-08-25T16:32:56.192Z,35.73
2022-08-25T16:35:24.912Z,35.92
2022-08-25T16:37:55.765Z,35.41
2022-08-25T16:40:27.194Z,35.95
2022-08-25T16:42:55.960Z,35.65
2022-08-25T16:45:24.627Z,35.85
2022-08-25T16:47:53.340Z,35.92
2022-08-25T16:50:22.011Z,35.96
2022-08-25T16:53:08.318Z,36.11
2022-08-25T16:55:39.349Z,35.97
2022-08-25T16:58:12.691Z,36.45
2022-08-25T17:00:44.745Z,36.20
2022-08-25T17:03:13.406Z,36.43
2022-08-25T17:05:43.965Z,36.33
2022-08-25T17:08:32.183Z,36.39
2022-08-25T17:11:11.179Z,37.19
2022-08-25T17:13:44.432Z,36.91
2022-08-25T17:16:15.128Z,37.76
2022-08-25T17:18:47.576Z,38.12
2022-08-25T17:21:24.729Z,38.13
2022-08-25T17:23:56.057Z,38.00
2022-08-25T17:26:28.937Z,38.19
2022-08-25T17:28:59.401Z,37.79
2022-08-25T17:31:29.990Z,38.24
2022-08-25T17:34:00.227Z,38.39
2022-08-25T17:36:29.009Z,38.10
2022-08-25T17:38:57.541Z,38.13
2022-08-25T17:41:28.241Z,38.04
2022-08-25T17:43:56.848Z,38.28
2022-08-25T17:46:25.593Z,38.66
2022-08-25T17:48:54.964Z,38.87
2022-08-25T17:51:24.058Z,38.81
2022-08-25T17:53:53.500Z,38.64
2022-08-25T17:56:28.011Z,39.02
2022-08-25T17:58:57.673Z,38.99
2022-08-25T18:01:29.130Z,39.27
2022-08-25T18:03:58.959Z,39.10
2022-08-25T18:06:29.548Z,38.86
2022-08-25T18:09:01.429Z,39.45
2022-08-25T18:11:33.517Z,39.51
2022-08-25T18:14:02.116Z,39.10
2022-08-25T18:16:30.764Z,39.10
2022-08-25T18:18:59.465Z,39.23
2022-08-25T18:21:30.934Z,39.75
2022-08-25T18:24:01.709Z,39.51
2022-08-25T18:26:30.453Z,39.69
2022-08-25T18:29:02.184Z,39.95
2022-08-25T18:31:30.853Z,40.43
2022-08-25T18:34:00.671Z,39.71
2022-08-25T18:36:29.145Z,40.01
2022-08-25T18:39:16.627Z,40.50
2022-08-25T18:41:45.306Z,40.16
2022-08-25T18:44:15.836Z,40.50
2022-08-25T18:46:45.462Z,40.82
2022-08-25T18:49:17.190Z,40.69
2022-08-25T18:51:46.538Z,40.52
2022-08-25T18:54:22.825Z,40.59
2022-08-25T18:56:53.952Z,41.02
2022-08-25T18:59:24.337Z,40.90
2022-08-25T19:01:54.361Z,41.13
2022-08-25T19:04:31.260Z,40.86
2022-08-25T19:07:01.907Z,40.77
2022-08-25T19:09:32.890Z,41.03
2022-08-25T19:12:02.097Z,41.21
2022-08-25T19:14:32.409Z,41.48
2022-08-25T19:17:01.678Z,41.39
2022-08-25T19:19:30.252Z,41.95
2022-08-25T19:22:00.123Z,42.02
2022-08-25T19:24:29.840Z,41.97
2022-08-25T19:27:02.316Z,42.54
2022-08-25T19:29:33.049Z,42.32
2022-08-25T19:32:02.536Z,42.17
2022-08-25T19:34:35.104Z,42.31
2022-08-25T19:37:05.576Z,42.11
2022-08-25T19:39:39.263Z,42.19
2022-08-25T19:42:31.711Z,42.17
2022-08-25T19:44:59.678Z,42.22
2022-08-25T19:47:29.699Z,42.03
2022-08-25T19:50:00.413Z,42.27
2022-08-25T19:52:28.984Z,42.68
2022-08-25T19:54:58.938Z,43.02
2022-08-25T19:57:42.396Z,43.02
2022-08-25T20:00:18.223Z,43.12
2022-08-25T20:02:47.295Z,43.75
2022-08-25T20:05:23.594Z,43.72
2022-08-25T20:07:53.589Z,43.48
2022-08-25T20:10:23.517Z,43.46
2022-08-25T20:12:52.566Z,44.07
2022-08-25T20:15:22.891Z,43.66
2022-08-25T20:17:56.663Z,45.35
2022-08-25T20:20:34.404Z,44.69
2022-08-25T20:23:17.557Z,44.94
2022-08-25T20:25:47.609Z,44.54
2022-08-25T20:28:19.291Z,44.00
2022-08-25T20:30:49.296Z,44.87
2022-08-25T20:33:22.621Z,44.24
2022-08-25T20:35:53.129Z,44.13
2022-08-25T20:38:21.860Z,44.24
2022-08-25T20:40:50.419Z,43.72
2022-08-25T20:43:20.851Z,43.79
2022-08-25T20:45:51.015Z,43.92
2022-08-25T20:48:19.745Z,43.55
2022-08-25T20:50:57.283Z,43.98
2022-08-25T20:53:27.198Z,43.86
2022-08-25T20:55:55.820Z,43.87
2022-08-25T20:58:24.405Z,43.75
2022-08-25T21:00:56.541Z,43.68
2022-08-25T21:03:25.362Z,43.69
2022-08-25T21:05:54.251Z,44.08
2022-08-25T21:08:23.808Z,44.16
2022-08-25T21:10:54.257Z,43.82
2022-08-25T21:13:22.896Z,44.07
2022-08-25T21:15:51.630Z,44.61
2022-08-25T21:18:21.648Z,44.19
2022-08-25T21:20:50.066Z,46.97
2022-08-25T21:23:18.700Z,45.82
2022-08-25T21:25:47.125Z,45.59
2022-08-25T21:28:15.573Z,45.33
2022-08-25T21:30:47.300Z,45.13
2022-08-25T21:33:16.424Z,45.05
2022-08-25T21:35:46.985Z,44.85
2022-08-25T21:38:15.725Z,44.92
2022-08-25T21:40:45.024Z,44.80
2022-08-25T21:43:13.988Z,44.86
2022-08-25T21:45:46.660Z,44.75
2022-08-25T21:48:16.347Z,44.76
2022-08-25T21:50:46.337Z,45.50
2022-08-25T21:53:14.729Z,45.10
2022-08-25T21:55:44.284Z,45.02
2022-08-25T21:58:13.083Z,45.14
2022-08-25T22:00:42.036Z,45.00
2022-08-25T22:03:10.848Z,44.98
2022-08-25T22:05:40.608Z,45.08
2022-08-25T22:08:13.296Z,45.53
2022-08-25T22:10:45.004Z,44.88
2022-08-25T22:13:13.884Z,45.08
2022-08-25T22:15:42.476Z,45.27
2022-08-25T22:18:10.985Z,45.60
2022-08-25T22:20:39.618Z,45.73
2022-08-25T22:23:10.095Z,45.28
2022-08-25T22:25:50.577Z,45.88
2022-08-25T22:28:19.578Z,45.77
2022-08-25T22:30:48.426Z,45.59
2022-08-25T22:33:17.583Z,45.72
2022-08-25T22:35:46.670Z,45.73
2022-08-25T22:38:15.573Z,46.01
2022-08-25T22:40:45.368Z,45.76
2022-08-25T22:43:16.552Z,45.89
2022-08-25T22:45:45.249Z,46.09
2022-08-25T22:48:14.173Z,45.97
2022-08-25T22:50:42.712Z,45.95
2022-08-25T22:53:11.648Z,46.00
2022-08-25T22:55:43.866Z,46.41
2022-08-25T22:58:14.665Z,46.54
2022-08-25T23:00:44.575Z,46.68
2022-08-25T23:03:15.391Z,46.84
2022-08-25T23:05:44.011Z,46.72
2022-08-25T23:08:13.809Z,46.85
2022-08-25T23:10:50.056Z,46.48
2022-08-25T23:13:34.573Z,46.95
2022-08-25T23:16:05.236Z,47.02
2022-08-25T23:18:34.532Z,46.60
2022-08-25T23:21:16.998Z,46.67
2022-08-25T23:23:53.401Z,46.26
2022-08-25T23:26:22.270Z,46.54
2022-08-25T23:28:51.118Z,46.66
2022-08-25T23:31:21.735Z,46.91
2022-08-25T23:33:52.437Z,47.03
2022-08-25T23:36:21.824Z,46.81
2022-08-25T23:38:51.576Z,46.87
2022-08-25T23:41:22.598Z,46.76
2022-08-25T23:43:51.889Z,46.76
2022-08-25T23:46:24.199Z,46.39
2022-08-25T23:48:56.521Z,47.09
2022-08-25T23:51:27.054Z,47.06
2022-08-25T23:53:59.281Z,47.33
2022-08-25T23:56:28.373Z,47.24
2022-08-25T23:58:57.645Z,46.92
